Time;durP1;ratioP1;P1;durP2;ratioP2;P2;SDS_P1;SDS_P2;PMS_P1;PMS_P2;Temp;Humidity;BMP_temperature;BMP_pressure;BME280_temperature;BME280_humidity;BME280_pressure;Samples;Min_cycle;Max_cycle;Signal;HPM_P1;HPM_P2
2022/10/01 00:02:21;;;;;;;15.15;7.40;;;;;;;10.72;100.00;100374.59;5274116;28;20074;-77
2022/10/01 00:04:52;;;;;;;10.65;7.15;;;;;;;10.69;100.00;100366.88;5265300;28;20068;-77
2022/10/01 00:07:22;;;;;;;12.93;7.72;;;;;;;10.69;100.00;100391.03;5255422;28;20578;-77
2022/10/01 00:09:53;;;;;;;11.23;7.13;;;;;;;10.66;100.00;100361.91;5259534;28;20118;-77
2022/10/01 00:12:23;;;;;;;15.15;7.68;;;;;;;10.66;100.00;100337.75;5246696;28;20055;-80
2022/10/01 00:14:54;;;;;;;14.68;7.57;;;;;;;10.62;100.00;100345.31;5285236;28;20031;-78
2022/10/01 00:17:24;;;;;;;13.57;7.22;;;;;;;10.66;100.00;100349.31;5273691;28;20016;-79
2022/10/01 00:19:55;;;;;;;10.00;7.00;;;;;;;10.68;100.00;100339.22;5287987;28;20027;-78
2022/10/01 00:22:25;;;;;;;12.95;7.85;;;;;;;10.66;100.00;100322.50;5287500;28;20493;-79
2022/10/01 00:24:56;;;;;;;12.48;7.82;;;;;;;10.62;100.00;100313.13;5287731;27;20023;-79
2022/10/01 00:27:27;;;;;;;12.48;7.28;;;;;;;10.67;100.00;100304.53;5278097;27;20031;-78
2022/10/01 00:29:58;;;;;;;12.82;7.30;;;;;;;10.67;100.00;100300.00;5286249;28;20127;-81
2022/10/01 00:32:31;;;;;;;14.00;7.25;;;;;;;10.73;100.00;100319.91;5279806;28;20030;-79
2022/10/01 00:35:08;;;;;;;11.93;6.45;;;;;;;10.70;100.00;100318.44;5277158;28;20115;-78
2022/10/01 00:37:38;;;;;;;11.02;6.05;;;;;;;10.73;100.00;100287.72;5274188;28;20485;-77
2022/10/01 00:40:09;;;;;;;10.30;6.10;;;;;;;10.75;100.00;100289.22;5260624;28;20064;-77
2022/10/01 00:42:40;;;;;;;11.63;5.68;;;;;;;10.71;100.00;100273.66;5279875;28;20058;-76
2022/10/01 00:45:12;;;;;;;10.18;5.78;;;;;;;10.76;100.00;100293.56;5264463;28;20062;-78
2022/10/01 00:48:01;;;;;;;9.05;5.45;;;;;;;10.73;100.00;100285.88;5266116;28;20505;-76
2022/10/01 00:50:34;;;;;;;15.48;5.68;;;;;;;10.71;100.00;100279.88;5289028;28;20019;-77
2022/10/01 00:53:10;;;;;;;9.10;5.53;;;;;;;10.73;100.00;100290.41;5283763;27;20024;-75
2022/10/01 00:55:50;;;;;;;10.18;5.90;;;;;;;10.72;100.00;100278.84;5266379;28;20024;-77
2022/10/01 00:58:23;;;;;;;8.13;5.70;;;;;;;10.75;100.00;100275.81;5270687;28;20084;-77
2022/10/01 01:00:55;;;;;;;8.70;4.78;;;;;;;10.77;100.00;100286.34;5288230;28;20023;-77
2022/10/01 01:03:27;;;;;;;13.93;4.97;;;;;;;10.75;100.00;100288.38;5273886;28;20454;-79
2022/10/01 01:05:57;;;;;;;7.90;4.60;;;;;;;10.75;100.00;100281.19;5288501;28;20099;-78
2022/10/01 01:08:28;;;;;;;8.75;4.43;;;;;;;10.73;100.00;100279.66;5288750;28;20110;-76
2022/10/01 01:11:10;;;;;;;12.52;4.15;;;;;;;10.74;100.00;100266.06;5287686;28;20022;-76
2022/10/01 01:13:43;;;;;;;7.88;4.25;;;;;;;10.78;100.00;100262.00;5268372;28;20023;-75
2022/10/01 01:16:50;;;;;;;7.93;4.03;;;;;;;10.75;100.00;100246.28;5273310;28;20024;-76
2022/10/01 01:19:33;;;;;;;;;;;;;;;10.76;100.00;100256.00;5285754;28;20067;-75
2022/10/01 01:22:06;;;;;;;6.35;3.25;;;;;;;10.80;100.00;100257.31;5272949;28;19915;-76
2022/10/01 01:24:50;;;;;;;9.60;3.40;;;;;;;10.79;100.00;100236.88;5264099;28;20474;-77
2022/10/01 01:27:43;;;;;;;4.55;2.90;;;;;;;10.76;100.00;100226.50;5270367;28;20385;-76
2022/10/01 01:30:16;;;;;;;8.77;2.97;;;;;;;10.80;100.00;100224.28;5277822;28;20047;-78
2022/10/01 01:33:04;;;;;;;4.13;2.78;;;;;;;10.78;100.00;100218.25;5282207;27;20095;-77
2022/10/01 01:35:45;;;;;;;3.67;2.80;;;;;;;10.83;100.00;100226.59;5264323;28;20024;-76
2022/10/01 01:38:23;;;;;;;4.60;2.80;;;;;;;10.84;100.00;100218.38;5269644;28;20098;-78
2022/10/01 01:40:57;;;;;;;8.43;2.90;;;;;;;10.86;100.00;100226.22;5284791;27;20023;-78
2022/10/01 01:43:36;;;;;;;4.63;2.92;;;;;;;10.86;100.00;100218.19;5270411;28;20088;-78
2022/10/01 01:46:10;;;;;;;4.07;2.38;;;;;;;10.84;100.00;100214.81;5273926;28;20020;-77
2022/10/01 01:48:48;;;;;;;4.38;2.50;;;;;;;10.88;100.00;100216.13;5285967;28;20023;-76
2022/10/01 01:51:35;;;;;;;7.25;2.95;;;;;;;10.88;100.00;100219.66;5272881;28;20503;-76
2022/10/01 01:54:07;;;;;;;4.25;2.45;;;;;;;10.91;100.00;100212.28;5263890;28;20055;-77
2022/10/01 01:56:37;;;;;;;5.20;2.50;;;;;;;10.93;100.00;100207.53;5270241;27;20077;-76
2022/10/01 01:59:08;;;;;;;5.38;2.53;;;;;;;10.90;100.00;100208.75;5263790;28;20024;-76
2022/10/01 02:01:43;;;;;;;6.18;2.10;;;;;;;10.95;100.00;100206.34;5283092;28;20398;-76
2022/10/01 02:04:13;;;;;;;2.27;1.80;;;;;;;10.94;100.00;100198.47;5270796;28;20050;-76
2022/10/01 02:07:09;;;;;;;2.65;1.92;;;;;;;10.95;100.00;100197.47;5272411;28;20019;-76
2022/10/01 02:09:58;;;;;;;4.75;1.80;;;;;;;10.96;100.00;100186.53;5282279;27;20114;-76
2022/10/01 02:13:00;;;;;;;2.97;1.80;;;;;;;10.99;100.00;100188.84;5264702;28;20512;-77
2022/10/01 02:15:51;;;;;;;2.38;1.60;;;;;;;10.99;100.00;100183.47;5275967;28;20032;-76
2022/10/01 02:18:49;;;;;;;1.90;1.30;;;;;;;11.01;100.00;100164.53;5285898;28;20028;-76
2022/10/01 02:21:19;;;;;;;4.85;1.45;;;;;;;11.03;100.00;100117.66;5260456;28;20131;-76
2022/10/01 02:24:00;;;;;;;3.40;1.50;;;;;;;11.08;100.00;100112.56;5265028;28;20483;-77
2022/10/01 02:26:34;;;;;;;1.83;1.20;;;;;;;11.11;100.00;100127.47;5262640;28;20023;-76
2022/10/01 02:29:07;;;;;;;5.85;1.17;;;;;;;11.19;100.00;100201.72;5266590;28;20023;-76
2022/10/01 02:31:40;;;;;;;3.05;1.15;;;;;;;11.20;100.00;100217.66;5281175;28;20020;-76
2022/10/01 02:34:14;;;;;;;3.50;1.15;;;;;;;11.23;100.00;100160.88;5263953;28;20103;-76
2022/10/01 02:36:46;;;;;;;1.85;1.00;;;;;;;11.25;100.00;100140.06;5265347;28;20076;-78
2022/10/01 02:39:20;;;;;;;1.58;1.00;;;;;;;11.34;100.00;100199.84;5257682;28;20122;-77
2022/10/01 02:41:54;;;;;;;2.13;0.95;;;;;;;11.39;100.00;100184.00;5270134;28;20020;-77
2022/10/01 02:44:30;;;;;;;0.70;0.70;;;;;;;11.44;100.00;100183.44;5263731;28;20120;-77
2022/10/01 02:47:05;;;;;;;2.28;0.88;;;;;;;11.46;100.00;100187.63;5264470;28;20111;-78
2022/10/01 02:49:36;;;;;;;1.35;0.95;;;;;;;11.51;100.00;100176.31;5262353;28;20112;-78
2022/10/01 02:52:24;;;;;;;0.80;0.75;;;;;;;11.47;100.00;100172.34;5268701;28;20476;-78
2022/10/01 02:55:01;;;;;;;0.80;0.60;;;;;;;11.52;100.00;100167.22;5266839;28;20446;-77
2022/10/01 02:57:32;;;;;;;0.50;0.50;;;;;;;11.50;100.00;100162.06;5284665;28;20016;-78
2022/10/01 03:00:07;;;;;;;0.95;0.70;;;;;;;11.54;100.00;100159.78;5284850;28;20055;-77
2022/10/01 03:02:38;;;;;;;1.38;0.60;;;;;;;11.53;100.00;100158.97;5272103;27;20029;-76
2022/10/01 03:05:08;;;;;;;0.80;0.70;;;;;;;11.54;100.00;100159.78;5275920;28;20098;-76
2022/10/01 03:07:39;;;;;;;0.70;0.52;;;;;;;11.51;100.00;100150.28;5264490;28;20016;-77
2022/10/01 03:10:11;;;;;;;1.30;0.57;;;;;;;11.55;100.00;100156.94;5277849;28;20043;-78
2022/10/01 03:12:45;;;;;;;1.13;0.55;;;;;;;11.57;100.00;100157.56;5250960;28;20032;-76
2022/10/01 03:15:20;;;;;;;0.43;0.43;;;;;;;11.58;100.00;100153.84;5266016;28;20389;-76
2022/10/01 03:17:51;;;;;;;;;;;;;;;11.58;100.00;100166.47;5267694;28;20028;-76
2022/10/01 03:20:22;;;;;;;0.73;0.50;;;;;;;11.58;100.00;100156.53;5274065;28;20232;-76
2022/10/01 03:22:52;;;;;;;0.60;0.50;;;;;;;11.58;100.00;100156.53;5263937;28;20035;-77
2022/10/01 03:25:23;;;;;;;0.52;0.43;;;;;;;11.55;100.00;100154.25;5276290;28;20068;-78
2022/10/01 03:27:53;;;;;;;0.73;0.68;;;;;;;11.54;100.00;100149.88;5272031;28;20047;-79
2022/10/01 03:30:24;;;;;;;0.82;0.70;;;;;;;11.50;100.00;100147.78;5286319;28;20028;-77
2022/10/01 03:32:54;;;;;;;0.80;0.60;;;;;;;11.48;100.00;100144.44;5281238;28;20068;-79
2022/10/01 03:35:24;;;;;;;1.27;0.65;;;;;;;11.47;100.00;100140.09;5270192;28;20449;-78
2022/10/01 03:37:55;;;;;;;0.93;0.88;;;;;;;11.48;100.00;100141.75;5263575;28;20157;-79
2022/10/01 03:40:25;;;;;;;1.15;0.95;;;;;;;11.45;100.00;100134.94;5270670;28;20111;-77
2022/10/01 03:42:56;;;;;;;0.80;0.77;;;;;;;11.49;100.00;100124.63;5265727;28;20020;-78
2022/10/01 03:45:26;;;;;;;2.90;1.10;;;;;;;11.51;100.00;100133.34;5279328;28;20016;-75
2022/10/01 03:47:57;;;;;;;1.10;1.00;;;;;;;11.52;100.00;100130.44;5265850;28;20028;-77
2022/10/01 03:50:27;;;;;;;2.03;1.15;;;;;;;11.54;100.00;100128.38;5285095;28;20027;-75
2022/10/01 03:52:59;;;;;;;2.45;1.20;;;;;;;11.58;100.00;100131.53;5284432;28;20392;-76
2022/10/01 03:55:30;;;;;;;2.00;1.38;;;;;;;11.65;100.00;100138.66;5266934;28;20370;-78
2022/10/01 03:58:01;;;;;;;1.85;1.50;;;;;;;11.70;100.00;100137.22;5269582;28;20053;-75
2022/10/01 04:00:31;;;;;;;2.67;1.40;;;;;;;11.72;100.00;100117.22;5280477;28;20032;-75
2022/10/01 04:03:01;;;;;;;1.90;1.50;;;;;;;11.75;100.00;100132.97;5267809;28;20027;-74
2022/10/01 04:05:32;;;;;;;2.28;1.95;;;;;;;11.83;100.00;100129.34;5267956;28;20024;-74
2022/10/01 04:08:02;;;;;;;2.03;1.83;;;;;;;11.87;100.00;100128.78;5267665;28;20020;-74
2022/10/01 04:10:33;;;;;;;1.92;1.70;;;;;;;11.94;100.00;100136.91;5267940;28;20032;-74
2022/10/01 04:13:05;;;;;;;2.92;2.00;;;;;;;12.00;100.00;100136.16;5281094;28;20510;-73
2022/10/01 04:15:35;;;;;;;4.72;2.60;;;;;;;12.08;100.00;100135.16;5266839;28;20661;-74
2022/10/01 04:18:06;;;;;;;4.20;2.35;;;;;;;12.12;100.00;100139.13;5260185;28;20048;-75
2022/10/01 04:20:37;;;;;;;2.70;2.15;;;;;;;12.15;100.00;100139.59;5260464;28;20035;-75
2022/10/01 04:23:07;;;;;;;3.30;2.42;;;;;;;12.21;100.00;100153.28;5267157;28;20031;-76
2022/10/01 04:25:38;;;;;;;2.85;2.15;;;;;;;12.26;100.00;100153.53;5266459;28;20073;-75
2022/10/01 04:28:11;;;;;;;3.88;2.65;;;;;;;12.32;100.00;100155.44;5266744;28;20107;-76
2022/10/01 04:30:44;;;;;;;2.58;2.38;;;;;;;12.34;100.00;100148.00;5284933;28;20110;-76
2022/10/01 04:33:15;;;;;;;2.80;1.55;;;;;;;12.40;100.00;100150.75;5271199;28;20116;-74
2022/10/01 04:35:46;;;;;;;2.55;1.77;;;;;;;12.44;100.00;100154.69;5256779;28;20058;-76
2022/10/01 04:38:17;;;;;;;3.40;2.08;;;;;;;12.47;100.00;100158.88;5258417;28;20087;-74
2022/10/01 04:40:47;;;;;;;2.35;1.90;;;;;;;12.54;100.00;100167.00;5286546;28;20504;-76
2022/10/01 04:43:18;;;;;;;3.33;2.00;;;;;;;12.56;100.00;100157.72;5288316;28;20058;-76
2022/10/01 04:45:48;;;;;;;5.40;1.75;;;;;;;12.63;100.00;100169.34;5287534;28;20031;-74
2022/10/01 04:48:19;;;;;;;2.20;1.75;;;;;;;12.63;100.00;100169.34;5273121;28;20671;-74
2022/10/01 04:50:49;;;;;;;3.40;1.88;;;;;;;12.66;100.00;100174.34;5279017;28;20497;-74
2022/10/01 04:53:20;;;;;;;4.93;1.90;;;;;;;12.67;100.00;100167.94;5269632;28;20020;-74
2022/10/01 04:55:50;;;;;;;2.38;1.58;;;;;;;12.69;100.00;100159.66;5287377;27;20117;-76
2022/10/01 04:58:21;;;;;;;4.90;1.65;;;;;;;12.70;100.00;100155.91;5269922;28;20013;-74
2022/10/01 05:00:51;;;;;;;1.90;1.55;;;;;;;12.71;100.00;100171.06;5266096;28;20039;-74
2022/10/01 05:03:21;;;;;;;2.85;1.20;;;;;;;12.70;100.00;100175.63;5263772;28;20026;-74
2022/10/01 05:05:52;;;;;;;2.50;1.60;;;;;;;12.72;100.00;100169.19;5287592;28;20099;-75
2022/10/01 05:08:23;;;;;;;4.43;1.67;;;;;;;12.72;100.00;100177.28;5274368;28;20023;-77
2022/10/01 05:10:53;;;;;;;2.83;1.60;;;;;;;12.72;100.00;100177.28;5275805;28;20024;-75
2022/10/01 05:13:28;;;;;;;5.25;1.70;;;;;;;12.75;100.00;100187.63;5281175;28;20077;-76
2022/10/01 05:16:01;;;;;;;;;;;;;;;12.79;100.00;100196.97;5267895;28;20063;-74
2022/10/01 05:18:31;;;;;;;1.98;1.65;;;;;;;12.81;100.00;100211.91;5276624;28;19907;-75
2022/10/01 05:21:06;;;;;;;2.90;1.75;;;;;;;12.81;100.00;100214.59;5289069;28;20107;-74
2022/10/01 05:23:37;;;;;;;3.17;1.92;;;;;;;12.83;100.00;100209.03;5288388;28;20280;-74
2022/10/01 05:26:08;;;;;;;6.88;2.00;;;;;;;12.85;100.00;100220.41;5289989;28;20076;-74
2022/10/01 05:28:43;;;;;;;2.70;1.90;;;;;;;12.82;100.00;100218.13;5277683;27;20725;-74
2022/10/01 05:31:14;;;;;;;2.33;1.98;;;;;;;12.85;100.00;100228.50;5281901;28;20106;-74
2022/10/01 05:33:45;;;;;;;3.20;2.25;;;;;;;12.87;100.00;100226.44;5279599;28;20250;-75
2022/10/01 05:36:15;;;;;;;4.72;2.45;;;;;;;12.87;100.00;100223.75;5264538;28;20081;-73
2022/10/01 05:38:49;;;;;;;2.60;2.03;;;;;;;12.91;100.00;100225.88;5268383;28;20023;-72
2022/10/01 05:41:20;;;;;;;6.03;3.23;;;;;;;12.93;100.00;100233.75;5275383;28;20149;-71
2022/10/01 05:43:50;;;;;;;5.55;2.53;;;;;;;12.92;100.00;100246.38;5267309;28;20030;-71
2022/10/01 05:46:21;;;;;;;3.20;2.58;;;;;;;12.94;100.00;100243.47;5265812;28;20062;-71
2022/10/01 05:49:00;;;;;;;7.65;2.78;;;;;;;12.98;100.00;100246.59;5284601;28;20031;-72
2022/10/01 05:51:32;;;;;;;3.42;2.33;;;;;;;13.01;100.00;100243.53;5285401;27;20049;-72
2022/10/01 05:54:03;;;;;;;16.67;3.15;;;;;;;13.02;100.00;100237.94;5273911;28;20035;-72
2022/10/01 05:56:34;;;;;;;3.80;2.65;;;;;;;13.02;100.00;100253.28;5285724;28;20098;-72
2022/10/01 05:59:04;;;;;;;3.85;2.78;;;;;;;13.02;100.00;100251.41;5274802;28;20028;-72
2022/10/01 06:01:35;;;;;;;6.22;2.85;;;;;;;13.02;100.00;100254.09;5269425;28;20011;-71
2022/10/01 06:04:05;;;;;;;8.25;2.72;;;;;;;13.03;100.00;100253.06;5271710;28;20023;-72
2022/10/01 06:06:36;;;;;;;7.03;2.42;;;;;;;13.04;100.00;100256.59;5285403;28;20108;-72
2022/10/01 06:09:07;;;;;;;6.15;2.88;;;;;;;13.05;100.00;100260.94;5254340;27;20393;-72
2022/10/01 06:11:38;;;;;;;8.07;2.90;;;;;;;13.08;100.00;100265.94;5272286;28;20067;-72
2022/10/01 06:14:09;;;;;;;8.15;2.60;;;;;;;13.10;100.00;100266.56;5268594;28;20043;-72
2022/10/01 06:16:40;;;;;;;5.90;3.20;;;;;;;13.14;100.00;100265.97;5262202;28;20455;-71
2022/10/01 06:19:10;;;;;;;6.30;2.83;;;;;;;13.18;100.00;100269.13;5261892;28;20020;-72
2022/10/01 06:21:41;;;;;;;6.72;3.15;;;;;;;13.20;100.00;100276.00;5261959;28;20080;-71
2022/10/01 06:24:11;;;;;;;6.20;2.55;;;;;;;13.27;100.00;100286.81;5263260;28;20060;-72
2022/10/01 06:26:42;;;;;;;4.57;2.67;;;;;;;13.28;100.00;100276.88;5277780;28;20241;-71
2022/10/01 06:29:13;;;;;;;8.05;2.67;;;;;;;13.31;100.00;100288.09;5279463;28;20055;-71
2022/10/01 06:31:43;;;;;;;4.75;3.00;;;;;;;13.34;100.00;100295.78;5279274;28;20062;-72
2022/10/01 06:34:13;;;;;;;7.10;3.45;;;;;;;13.39;100.00;100295.19;5276126;28;20055;-72
2022/10/01 06:36:44;;;;;;;7.65;2.75;;;;;;;13.40;100.00;100300.41;5253968;28;20268;-72
2022/10/01 06:39:14;;;;;;;5.53;2.88;;;;;;;13.43;100.00;100307.22;5262184;28;20076;-74
2022/10/01 06:41:46;;;;;;;10.52;3.10;;;;;;;13.44;100.00;100298.94;5280927;28;20027;-72
2022/10/01 06:44:18;;;;;;;7.13;3.08;;;;;;;13.49;100.00;100301.03;5282900;28;20088;-72
2022/10/01 06:46:49;;;;;;;6.57;2.80;;;;;;;13.56;100.00;100301.94;5278889;28;20023;-73
2022/10/01 06:49:22;;;;;;;12.07;4.10;;;;;;;13.62;100.00;100293.03;5260827;28;20047;-73
2022/10/01 06:54:41;;;;;;;9.25;3.40;;;;;;;13.59;100.00;100298.00;5279133;28;20015;-73
2022/10/01 06:57:12;;;;;;;12.10;3.30;;;;;;;13.54;100.00;100303.97;5282625;28;20392;-73
2022/10/01 06:59:43;;;;;;;12.40;4.03;;;;;;;13.57;100.00;100300.06;5279487;28;20045;-73
2022/10/01 07:02:27;;;;;;;6.53;3.38;;;;;;;13.58;100.00;100313.34;5267877;28;20431;-74
2022/10/01 07:04:58;;;;;;;11.35;4.35;;;;;;;13.56;100.00;100299.25;5274642;28;20043;-73
2022/10/01 07:07:36;;;;;;;8.82;3.97;;;;;;;13.62;100.00;100311.91;5263402;28;20390;-73
2022/10/01 07:10:08;;;;;;;8.40;4.10;;;;;;;13.74;100.00;100312.16;5247228;28;20035;-73
2022/10/01 07:12:39;;;;;;;9.45;3.80;;;;;;;13.91;100.00;100324.28;5257501;28;20034;-73
2022/10/01 07:15:10;;;;;;;11.90;3.38;;;;;;;14.18;100.00;100322.53;5269569;28;20279;-73
2022/10/01 07:17:44;;;;;;;6.70;3.08;;;;;;;14.46;100.00;100327.81;5279464;28;20054;-73
2022/10/01 07:20:34;;;;;;;10.07;3.05;;;;;;;14.66;100.00;100325.16;5262182;28;20385;-73
2022/10/01 07:23:15;;;;;;;7.65;2.53;;;;;;;14.67;100.00;100331.41;5254649;28;20028;-73
2022/10/01 07:25:45;;;;;;;9.18;2.72;;;;;;;14.73;100.00;100336.81;5276839;28;20039;-73
2022/10/01 07:28:22;;;;;;;8.45;3.00;;;;;;;14.89;100.00;100345.53;5264373;28;20284;-73
2022/10/01 07:31:05;;;;;;;4.43;2.13;;;;;;;14.96;100.00;100340.97;5264283;28;20059;-73
2022/10/01 07:33:40;;;;;;;10.65;3.10;;;;;;;15.34;100.00;100343.03;5262946;28;20024;-73
2022/10/01 07:36:12;;;;;;;5.30;2.88;;;;;;;15.64;100.00;100355.09;5275224;28;20059;-73
2022/10/01 07:38:44;;;;;;;8.50;2.88;;;;;;;16.27;100.00;100360.72;5272462;28;20031;-73
2022/10/01 07:41:16;;;;;;;9.05;2.80;;;;;;;16.92;100.00;100366.00;5287691;28;20039;-73
2022/10/01 07:43:46;;;;;;;7.68;2.53;;;;;;;16.98;100.00;100362.41;5283847;28;20469;-73
2022/10/01 07:46:17;;;;;;;8.85;2.60;;;;;;;16.84;100.00;100366.25;5267567;28;20024;-73
2022/10/01 07:48:48;;;;;;;12.70;3.00;;;;;;;16.42;100.00;100378.56;5269522;28;20076;-73
2022/10/01 07:51:19;;;;;;;9.15;3.60;;;;;;;16.03;100.00;100381.19;5268152;28;20184;-73
2022/10/01 07:53:51;;;;;;;7.22;3.25;;;;;;;15.90;100.00;100383.09;5281548;28;20513;-73
2022/10/01 07:56:22;;;;;;;13.45;4.05;;;;;;;15.86;100.00;100382.69;5267813;28;20089;-73
2022/10/01 07:58:57;;;;;;;15.52;4.38;;;;;;;15.74;100.00;100387.94;5271218;28;20444;-73
2022/10/01 08:01:28;;;;;;;11.93;4.10;;;;;;;16.08;100.00;100402.22;5271638;28;20056;-73
2022/10/01 08:03:59;;;;;;;13.90;4.45;;;;;;;16.47;100.00;100411.22;5263006;28;20059;-73
2022/10/01 08:06:29;;;;;;;13.80;4.47;;;;;;;16.97;100.00;100408.69;5264539;28;20029;-73
2022/10/01 08:09:00;;;;;;;9.00;3.53;;;;;;;17.08;100.00;100416.09;5255794;28;20069;-73
2022/10/01 08:11:30;;;;;;;12.55;3.40;;;;;;;17.26;100.00;100418.03;5264818;28;20039;-73
2022/10/01 08:14:01;;;;;;;12.15;3.20;;;;;;;17.21;100.00;100413.28;5264267;28;20099;-73
2022/10/01 08:16:33;;;;;;;11.55;3.10;;;;;;;17.11;100.00;100429.19;5269490;28;20059;-73
2022/10/01 08:19:04;;;;;;;11.20;3.17;;;;;;;17.33;100.00;100425.09;5279566;28;20023;-73
2022/10/01 08:21:34;;;;;;;15.15;3.85;;;;;;;17.43;100.00;100430.00;5274742;27;20030;-73
2022/10/01 08:24:05;;;;;;;18.23;3.67;;;;;;;17.18;100.00;100435.41;5263260;28;20293;-72
2022/10/01 08:26:36;;;;;;;16.95;2.97;;;;;;;17.07;100.00;100442.38;5271450;28;20023;-73
2022/10/01 08:29:06;;;;;;;14.52;3.17;;;;;;;17.02;100.00;100438.66;5266391;28;20026;-73
2022/10/01 08:31:37;;;;;;;10.52;2.92;;;;;;;17.53;100.00;100440.38;5281681;28;20024;-73
2022/10/01 08:34:08;;;;;;;10.10;3.25;;;;;;;18.07;100.00;100439.66;5262737;28;20420;-74
2022/10/01 08:36:40;;;;;;;11.95;2.70;;;;;;;18.16;100.00;100451.03;5269107;28;20119;-73
2022/10/01 08:39:13;;;;;;;12.90;2.72;;;;;;;18.22;100.00;100441.97;5282326;28;20405;-73
2022/10/01 08:41:58;;;;;;;12.60;3.40;;;;;;;18.55;100.00;100444.31;5283310;28;20039;-73
2022/10/01 08:44:40;;;;;;;16.75;3.15;;;;;;;18.80;100.00;100457.81;5256757;28;20097;-73
2022/10/01 08:47:25;;;;;;;17.35;3.03;;;;;;;19.00;100.00;100457.53;5262706;28;20032;-72
2022/10/01 08:50:13;;;;;;;20.58;3.13;;;;;;;18.93;100.00;100470.41;5276717;28;20032;-72
2022/10/01 08:52:52;;;;;;;17.05;3.20;;;;;;;18.57;100.00;100463.09;5262946;28;20118;-73
2022/10/01 08:55:26;;;;;;;13.00;3.40;;;;;;;18.53;100.00;100470.88;5263008;28;20032;-72
2022/10/01 08:58:01;;;;;;;13.15;2.53;;;;;;;18.67;100.00;100465.28;5263265;28;20425;-72
2022/10/01 09:00:40;;;;;;;10.52;2.63;;;;;;;18.99;100.00;100472.19;5262676;28;20031;-73
2022/10/01 09:03:14;;;;;;;17.25;2.88;;;;;;;19.07;100.00;100487.34;5261601;28;20046;-73
2022/10/01 09:05:53;;;;;;;17.33;3.35;;;;;;;18.73;100.00;100484.25;5276573;28;20030;-73
2022/10/01 09:08:53;;;;;;;19.05;4.28;;;;;;;18.83;100.00;100487.25;5270193;28;20023;-73
2022/10/01 09:11:36;;;;;;;12.75;3.20;;;;;;;19.10;100.00;100479.56;5283941;28;20570;-73
2022/10/01 09:14:10;;;;;;;12.98;2.47;;;;;;;18.95;100.00;100494.63;5284506;27;20084;-73
2022/10/01 09:16:51;;;;;;;9.52;2.95;;;;;;;19.12;100.00;100479.31;5285634;27;20112;-72
2022/10/01 09:19:31;;;;;;;16.60;3.47;;;;;;;19.37;100.00;100493.56;5270887;28;20094;-72
2022/10/01 09:22:14;;;;;;;12.48;2.85;;;;;;;19.38;100.00;100497.16;5283376;27;20384;-73
2022/10/01 09:25:13;;;;;;;10.63;3.00;;;;;;;19.77;100.00;100497.59;5274661;28;20096;-73
2022/10/01 09:27:48;;;;;;;13.32;2.92;;;;;;;19.78;100.00;100513.72;5266373;28;20032;-73
2022/10/01 09:30:25;;;;;;;18.13;3.03;;;;;;;19.02;100.00;100506.22;5260753;28;20208;-73
2022/10/01 09:33:11;;;;;;;9.35;2.28;;;;;;;19.18;100.00;100513.75;5263629;28;20031;-73
2022/10/01 09:36:04;;;;;;;13.98;2.63;;;;;;;18.98;100.00;100511.31;5275133;28;20031;-73
2022/10/01 09:38:43;;;;;;;13.52;3.20;;;;;;;18.52;100.00;100522.72;5270891;28;20095;-73
2022/10/01 09:41:14;;;;;;;10.57;2.78;;;;;;;18.61;100.00;100519.47;5282507;28;20181;-73
2022/10/01 09:43:46;;;;;;;11.05;3.42;;;;;;;18.76;100.00;100521.00;5269379;28;20102;-73
2022/10/01 09:46:18;;;;;;;14.35;2.70;;;;;;;19.03;100.00;100522.34;5282909;28;20032;-73
2022/10/01 09:49:05;;;;;;;12.05;2.55;;;;;;;19.33;100.00;100537.81;5283695;28;20019;-72
2022/10/01 09:51:43;;;;;;;16.30;2.97;;;;;;;19.46;100.00;100528.63;5283305;28;20032;-72
2022/10/01 09:54:19;;;;;;;16.13;3.42;;;;;;;18.99;100.00;100536.59;5278170;28;20429;-72
2022/10/01 09:56:57;;;;;;;11.90;3.30;;;;;;;18.88;100.00;100541.75;5282014;28;20082;-72
2022/10/01 09:59:34;;;;;;;13.35;3.15;;;;;;;18.53;100.00;100546.94;5284122;28;20020;-73
2022/10/01 10:02:15;;;;;;;22.98;3.90;;;;;;;18.16;100.00;100548.78;5274215;28;20497;-72
2022/10/01 10:04:46;;;;;;;16.65;2.97;;;;;;;17.86;100.00;100546.72;5258013;28;20028;-72
2022/10/01 10:07:17;;;;;;;15.60;2.60;;;;;;;18.01;100.00;100546.41;5273941;28;20063;-72
2022/10/01 10:09:48;;;;;;;13.73;3.10;;;;;;;17.82;100.00;100555.53;5274581;28;20032;-72
2022/10/01 10:12:28;;;;;;;14.30;2.88;;;;;;;18.18;100.00;100556.72;5272383;28;20030;-72
2022/10/01 10:15:07;;;;;;;13.13;2.72;;;;;;;18.58;100.00;100557.13;5283259;28;20020;-72
2022/10/01 10:17:43;;;;;;;13.23;3.00;;;;;;;18.85;100.00;100566.66;5284415;27;20027;-73
2022/10/01 10:20:28;;;;;;;13.35;2.72;;;;;;;18.58;100.00;100574.25;5283243;28;20032;-72
2022/10/01 10:23:28;;;;;;;14.77;2.55;;;;;;;18.62;100.00;100575.47;5263788;28;20024;-72
2022/10/01 10:26:04;;;;;;;18.77;2.65;;;;;;;18.82;100.00;100571.72;5269377;28;20106;-73
2022/10/01 10:28:45;;;;;;;12.85;2.50;;;;;;;18.98;100.00;100578.44;5259075;28;20077;-72
2022/10/01 10:31:21;;;;;;;12.10;2.58;;;;;;;18.86;100.00;100587.34;5261722;28;20126;-72
2022/10/01 10:33:58;;;;;;;12.77;2.63;;;;;;;18.65;100.00;100598.63;5266744;28;20505;-72
2022/10/01 10:36:32;;;;;;;13.32;2.80;;;;;;;18.64;100.00;100594.25;5272815;28;20109;-72
2022/10/01 10:39:06;;;;;;;16.73;3.00;;;;;;;18.62;100.00;100604.50;5259420;28;20020;-72
2022/10/01 10:41:36;;;;;;;15.65;2.90;;;;;;;18.81;100.00;100606.22;5261474;28;20032;-72
2022/10/01 10:44:12;;;;;;;14.05;2.22;;;;;;;18.84;100.00;100604.94;5281581;28;20027;-72
2022/10/01 10:46:45;;;;;;;13.73;2.90;;;;;;;18.64;100.00;100603.25;5281798;28;20027;-72
2022/10/01 10:50:06;;;;;;;10.45;2.80;;;;;;;18.57;100.00;100615.22;5270580;28;20377;-72
2022/10/01 10:52:36;;;;;;;10.77;2.00;;;;;;;18.52;100.00;100620.50;5268980;28;20085;-72
2022/10/01 10:55:22;;;;;;;16.15;2.67;;;;;;;18.57;100.00;100634.22;5278672;28;20023;-72
2022/10/01 10:57:53;;;;;;;12.18;2.63;;;;;;;18.74;100.00;100632.66;5270149;28;20023;-73
2022/10/01 11:00:25;;;;;;;13.27;2.25;;;;;;;19.05;100.00;100628.13;5274834;28;20469;-72
2022/10/01 11:03:06;;;;;;;10.48;2.22;;;;;;;19.04;100.00;100634.63;5258979;28;20082;-72
2022/10/01 11:05:40;;;;;;;10.05;2.90;;;;;;;19.32;100.00;100632.16;5271463;28;20115;-72
2022/10/01 11:08:18;;;;;;;11.18;2.35;;;;;;;19.71;100.00;100632.72;5259885;28;20351;-72
2022/10/01 11:11:27;;;;;;;15.63;2.83;;;;;;;19.71;100.00;100645.50;5251867;28;20363;-73
2022/10/01 11:14:04;;;;;;;15.10;2.80;;;;;;;19.44;100.00;100650.44;5253870;28;20359;-72
2022/10/01 11:16:56;;;;;;;11.30;2.50;;;;;;;19.65;100.00;100660.84;5281639;28;20540;-73
2022/10/01 11:19:39;;;;;;;17.38;3.20;;;;;;;19.68;100.00;100657.69;5280736;28;20076;-73
2022/10/01 11:22:45;;;;;;;11.68;2.70;;;;;;;19.61;100.00;100660.47;5269096;28;20168;-73
2022/10/01 11:25:57;;;;;;;14.52;2.67;;;;;;;19.76;100.00;100661.97;5261138;28;20039;-73
2022/10/01 11:28:54;;;;;;;10.52;2.08;;;;;;;19.71;100.00;100659.09;5254088;28;20612;-73
2022/10/01 11:31:35;;;;;;;18.13;2.35;;;;;;;19.58;100.00;100666.38;5279321;28;20031;-72
2022/10/01 11:34:27;;;;;;;13.02;2.33;;;;;;;19.62;100.00;100664.84;5279084;28;20440;-73
2022/10/01 11:37:09;;;;;;;13.05;2.00;;;;;;;19.91;100.00;100662.38;5263131;28;20032;-73
2022/10/01 11:39:43;;;;;;;9.38;2.30;;;;;;;20.02;100.00;100663.44;5282298;28;20024;-73
2022/10/01 11:42:26;;;;;;;16.87;2.33;;;;;;;19.89;100.00;100667.22;5276853;28;20046;-73
2022/10/01 11:45:03;;;;;;;12.48;2.17;;;;;;;19.81;100.00;100668.38;5260502;28;20028;-73
2022/10/01 11:47:43;;;;;;;11.55;2.15;;;;;;;19.77;100.00;100680.78;5282797;28;20460;-73
2022/10/01 11:50:24;;;;;;;12.93;2.10;;;;;;;19.72;100.00;100690.69;5263209;28;20024;-73
2022/10/01 11:53:31;;;;;;;12.10;1.65;;;;;;;19.89;100.00;100687.09;5261152;28;20499;-73
2022/10/01 11:59:28;;;;;;;9.70;1.92;;;;;;;20.58;100.00;100689.41;5272280;28;20415;-73